createdAt,value
2018-08-12T00:00:34.446Z,4.70
2018-08-12T00:05:38.152Z,5.07
2018-08-12T00:10:41.842Z,5.10
2018-08-12T00:15:45.506Z,5.27
2018-08-12T00:20:49.249Z,5.73
2018-08-12T00:25:52.955Z,4.50
2018-08-12T00:30:56.679Z,5.23
2018-08-12T00:36:00.359Z,5.30
2018-08-12T00:41:04.167Z,5.20
2018-08-12T00:46:07.859Z,5.80
2018-08-12T00:51:11.583Z,5.40
2018-08-12T00:56:15.345Z,5.50
2018-08-12T01:01:19.042Z,6.30
2018-08-12T01:06:22.780Z,7.07
2018-08-12T01:11:26.504Z,6.10
2018-08-12T01:16:31.146Z,6.17
2018-08-12T01:21:34.959Z,6.10
2018-08-12T01:26:38.697Z,6.27
2018-08-12T01:31:42.362Z,6.67
2018-08-12T01:36:46.288Z,6.47
2018-08-12T01:41:49.991Z,6.40
2018-08-12T01:46:53.629Z,6.43
2018-08-12T01:51:57.425Z,7.50
2018-08-12T01:57:01.108Z,6.50
2018-08-12T02:02:04.889Z,8.07
2018-08-12T02:07:08.711Z,7.07
2018-08-12T02:12:12.384Z,7.03
2018-08-12T02:17:16.026Z,8.83
2018-08-12T02:22:19.669Z,8.10
2018-08-12T02:27:23.413Z,7.03
2018-08-12T02:32:27.125Z,7.70
2018-08-12T02:37:31.061Z,7.37
2018-08-12T02:42:34.829Z,8.60
2018-08-12T02:47:38.592Z,7.10
2018-08-12T02:52:42.841Z,7.13
2018-08-12T02:57:46.484Z,7.90
2018-08-12T03:02:50.125Z,7.70
2018-08-12T03:07:53.854Z,7.83
2018-08-12T03:12:57.896Z,8.60
2018-08-12T03:18:01.854Z,7.30
2018-08-12T03:23:05.880Z,8.90
2018-08-12T03:28:09.681Z,8.07
2018-08-12T03:33:13.561Z,8.43
2018-08-12T03:38:17.174Z,8.17
2018-08-12T03:43:20.777Z,8.70
2018-08-12T03:48:24.477Z,8.47
2018-08-12T03:53:28.126Z,8.07
2018-08-12T03:58:31.760Z,8.27
2018-08-12T04:03:35.421Z,7.80
2018-08-12T04:08:39.031Z,7.83
2018-08-12T04:13:42.630Z,8.43
2018-08-12T04:18:46.257Z,8.60
2018-08-12T04:23:49.920Z,8.83
2018-08-12T04:28:53.566Z,8.50
2018-08-12T04:33:57.199Z,8.10
2018-08-12T04:39:00.879Z,7.53
2018-08-12T04:44:04.753Z,7.83
2018-08-12T04:49:09.504Z,7.63
2018-08-12T04:54:13.149Z,8.43
2018-08-12T04:59:16.767Z,6.73
2018-08-12T05:04:20.431Z,7.93
2018-08-12T05:09:24.066Z,7.27
2018-08-12T05:14:27.858Z,7.50
2018-08-12T05:19:31.583Z,8.27
2018-08-12T05:24:35.242Z,7.27
2018-08-12T05:29:38.935Z,7.50
2018-08-12T05:34:42.614Z,7.37
2018-08-12T05:39:46.294Z,6.47
2018-08-12T05:44:49.990Z,6.60
2018-08-12T05:49:53.654Z,7.10
2018-08-12T05:54:57.320Z,6.37
2018-08-12T06:00:01.164Z,6.93
2018-08-12T06:05:05.641Z,6.90
2018-08-12T06:10:10.954Z,8.00
2018-08-12T06:15:19.028Z,6.13
2018-08-12T06:20:22.693Z,6.47
2018-08-12T06:25:26.303Z,6.97
2018-08-12T06:30:29.963Z,6.90
2018-08-12T06:35:33.643Z,6.37
2018-08-12T06:40:37.292Z,5.17
2018-08-12T06:45:40.943Z,5.20
2018-08-12T06:50:44.622Z,5.03
2018-08-12T06:55:48.292Z,3.83
2018-08-12T07:00:51.969Z,3.47
2018-08-12T07:05:55.605Z,3.43
2018-08-12T07:10:59.254Z,4.37
2018-08-12T07:16:02.978Z,2.30
2018-08-12T07:21:06.669Z,2.63
2018-08-12T07:26:10.370Z,2.27
2018-08-12T07:31:14.060Z,3.77
2018-08-12T07:36:17.694Z,2.97
2018-08-12T07:41:21.439Z,1.60
2018-08-12T07:46:25.236Z,2.20
2018-08-12T07:51:28.899Z,1.47
2018-08-12T07:56:32.729Z,2.00
2018-08-12T08:01:36.378Z,4.73
2018-08-12T08:06:40.148Z,6.67
2018-08-12T08:11:43.861Z,4.13
2018-08-12T08:16:47.548Z,1.60
2018-08-12T08:21:51.286Z,1.50
2018-08-12T08:26:54.942Z,2.10
2018-08-12T08:31:58.875Z,1.33
2018-08-12T08:37:02.306Z,1.10
2018-08-12T08:42:06.867Z,2.10
2018-08-12T08:47:10.576Z,2.83
2018-08-12T08:52:14.241Z,0.80
2018-08-12T08:57:17.926Z,1.63
2018-08-12T09:02:21.767Z,1.33
2018-08-12T09:07:25.479Z,1.63
2018-08-12T09:12:29.159Z,1.63
2018-08-12T09:17:32.880Z,0.93
2018-08-12T09:22:36.813Z,0.87
2018-08-12T09:27:40.514Z,0.63
2018-08-12T09:32:44.848Z,1.63
2018-08-12T09:37:48.521Z,2.60
2018-08-12T09:42:52.223Z,2.00
2018-08-12T09:47:55.858Z,1.23
2018-08-12T09:52:59.573Z,0.77
2018-08-12T09:58:03.307Z,1.67
2018-08-12T10:03:07.632Z,0.50
2018-08-12T10:08:11.374Z,1.10
2018-08-12T10:13:15.069Z,1.23
2018-08-12T10:18:18.739Z,1.20
2018-08-12T10:23:22.441Z,1.43
2018-08-12T10:28:26.187Z,1.10
2018-08-12T10:33:29.875Z,0.73
2018-08-12T10:38:33.555Z,0.60
2018-08-12T10:43:37.254Z,1.70
2018-08-12T10:48:40.885Z,1.00
2018-08-12T10:53:44.614Z,0.40
2018-08-12T10:58:48.319Z,0.60
2018-08-12T11:03:52.133Z,0.70
2018-08-12T11:08:55.919Z,0.80
2018-08-12T11:13:59.629Z,0.93
2018-08-12T11:19:03.279Z,0.40
2018-08-12T11:24:06.957Z,0.43
2018-08-12T11:29:10.598Z,0.70
2018-08-12T11:34:14.227Z,1.33
2018-08-12T11:39:17.848Z,0.50
2018-08-12T11:44:21.511Z,0.50
2018-08-12T11:49:25.162Z,0.87
2018-08-12T11:54:28.826Z,0.57
2018-08-12T11:59:32.496Z,0.67
2018-08-12T12:04:36.191Z,1.10
2018-08-12T12:09:39.837Z,1.10
2018-08-12T12:14:43.455Z,2.30
2018-08-12T12:19:47.090Z,1.33
2018-08-12T12:24:50.759Z,0.63
2018-08-12T12:29:54.434Z,0.80
2018-08-12T12:34:58.188Z,0.70
2018-08-12T12:40:01.884Z,0.90
2018-08-12T12:45:07.365Z,1.13
2018-08-12T12:50:17.054Z,0.60
2018-08-12T12:55:21.705Z,0.60
2018-08-12T13:00:25.428Z,0.80
2018-08-12T13:05:29.149Z,1.03
2018-08-12T13:10:32.950Z,1.27
2018-08-12T13:15:36.635Z,0.90
2018-08-12T13:20:40.361Z,1.10
2018-08-12T13:25:44.138Z,1.07
2018-08-12T13:30:47.892Z,0.90
2018-08-12T13:35:51.722Z,2.40
2018-08-12T13:40:55.604Z,0.83
2018-08-12T13:45:59.372Z,1.73
2018-08-12T13:51:03.096Z,0.73
2018-08-12T13:56:06.923Z,2.00
2018-08-12T14:01:10.668Z,3.10
2018-08-12T14:06:14.494Z,1.33
2018-08-12T14:11:18.234Z,1.07
2018-08-12T14:16:22.030Z,1.80
2018-08-12T14:21:26.021Z,1.40
2018-08-12T14:26:30.578Z,1.80
2018-08-12T14:31:34.364Z,1.93
2018-08-12T14:36:38.535Z,1.50
2018-08-12T14:41:42.445Z,1.37
2018-08-12T14:46:46.284Z,2.13
2018-08-12T14:51:50.068Z,1.30
2018-08-12T14:56:53.957Z,1.50
2018-08-12T15:01:57.862Z,1.67
2018-08-12T15:07:01.669Z,1.97
2018-08-12T15:12:05.597Z,2.03
2018-08-12T15:17:09.742Z,1.97
2018-08-12T15:27:22.356Z,2.30
2018-08-12T15:32:29.342Z,1.93
2018-08-12T15:37:33.267Z,1.00
2018-08-12T15:42:37.317Z,0.97
2018-08-12T15:47:42.118Z,1.07
2018-08-12T15:52:47.025Z,1.13
2018-08-12T15:57:51.318Z,0.80
2018-08-12T16:02:55.356Z,1.00
2018-08-12T16:07:59.262Z,1.53
2018-08-12T16:13:03.157Z,2.43
2018-08-12T16:18:07.016Z,0.70
2018-08-12T16:23:10.862Z,0.87
2018-08-12T16:28:14.687Z,1.97
2018-08-12T16:33:18.425Z,1.17
2018-08-12T16:38:22.151Z,1.50
2018-08-12T16:43:25.950Z,1.67
2018-08-12T16:48:29.647Z,1.37
2018-08-12T16:53:33.524Z,1.17
2018-08-12T16:58:37.382Z,1.37
2018-08-12T17:03:41.196Z,2.47
2018-08-12T17:08:45.083Z,1.60
2018-08-12T17:13:48.868Z,1.60
2018-08-12T17:18:52.833Z,1.50
2018-08-12T17:23:56.618Z,2.83
2018-08-12T17:29:00.283Z,2.63
2018-08-12T17:34:04.088Z,3.03
2018-08-12T17:39:09.942Z,4.73
2018-08-12T17:44:13.649Z,2.10
2018-08-12T17:49:17.387Z,2.03
2018-08-12T17:54:21.068Z,1.50
2018-08-12T17:59:24.817Z,1.00
2018-08-12T18:04:28.481Z,1.57
2018-08-12T18:09:32.136Z,1.63
2018-08-12T18:14:35.793Z,2.03
2018-08-12T18:19:39.462Z,1.90
2018-08-12T18:24:43.184Z,1.60
2018-08-12T18:29:46.900Z,1.87
2018-08-12T18:34:50.559Z,1.50
2018-08-12T18:39:54.271Z,1.43
2018-08-12T18:44:58.166Z,2.97
2018-08-12T18:50:02.082Z,1.53
2018-08-12T18:55:07.081Z,1.53
2018-08-12T19:00:13.117Z,4.67
2018-08-12T19:05:16.795Z,4.70
2018-08-12T19:10:20.478Z,1.80
2018-08-12T19:15:24.141Z,1.87
2018-08-12T19:20:27.834Z,1.63
2018-08-12T19:25:31.467Z,1.17
2018-08-12T19:30:35.102Z,1.43
2018-08-12T19:35:38.751Z,2.53
2018-08-12T19:40:42.573Z,1.93
2018-08-12T19:45:46.380Z,1.50
2018-08-12T19:50:50.141Z,2.40
2018-08-12T19:55:53.933Z,1.67
2018-08-12T20:00:57.928Z,1.70
2018-08-12T20:06:01.714Z,1.87
2018-08-12T20:11:05.602Z,2.40
2018-08-12T20:16:09.971Z,3.30
2018-08-12T20:21:13.980Z,2.07
2018-08-12T20:26:17.803Z,2.73
2018-08-12T20:31:21.625Z,4.80
2018-08-12T20:36:25.860Z,2.37
2018-08-12T20:41:29.921Z,1.90
2018-08-12T20:46:33.772Z,2.10
2018-08-12T20:51:37.697Z,3.00
2018-08-12T20:56:41.521Z,2.87
2018-08-12T21:01:45.365Z,3.70
2018-08-12T21:06:49.120Z,3.37
2018-08-12T21:11:53.105Z,2.50
2018-08-12T21:16:56.824Z,3.07
2018-08-12T21:22:00.508Z,2.67
2018-08-12T21:27:04.377Z,2.00
2018-08-12T21:32:08.807Z,2.50
2018-08-12T21:37:12.534Z,2.43
2018-08-12T21:42:16.287Z,3.23
2018-08-12T21:47:20.012Z,2.53
2018-08-12T21:52:23.704Z,4.00
2018-08-12T21:57:27.370Z,2.93
2018-08-12T22:02:31.139Z,3.07
2018-08-12T22:07:34.812Z,3.23
2018-08-12T22:12:38.452Z,3.17
2018-08-12T22:17:42.132Z,2.67
2018-08-12T22:22:45.798Z,3.43
2018-08-12T22:27:49.611Z,3.83
2018-08-12T22:32:53.530Z,3.33
2018-08-12T22:37:57.179Z,2.93
2018-08-12T22:43:00.889Z,5.43
2018-08-12T22:48:04.643Z,3.57
2018-08-12T22:53:08.353Z,3.80
2018-08-12T22:58:12.063Z,6.00
2018-08-12T23:03:16.011Z,3.37
2018-08-12T23:08:19.740Z,2.23
2018-08-12T23:13:23.430Z,2.43
2018-08-12T23:18:27.140Z,2.07
2018-08-12T23:23:30.792Z,2.73
2018-08-12T23:28:34.483Z,2.57
2018-08-12T23:33:38.703Z,3.37
2018-08-12T23:38:42.403Z,2.23
2018-08-12T23:43:46.152Z,2.20
2018-08-12T23:48:49.793Z,3.10
2018-08-12T23:53:53.411Z,3.13
2018-08-12T23:58:57.110Z,2.30
